Hauptseite
METAR-TAF:

METAR-TAF

Flughäfen :

Sohag, Ägypten

Breite: 26-20-25N, Länge: 31-44-20E, Höhe: 70 m

Beobachtung

Neuester Wetterbericht von vor 1 Stunde und 20 Minuten, um 13:00 UTC
Wind 17 kt aus Ost/Südost
Temperatur 40°C
Luftfeuchtigkeit 6%
Luftdruck 1008 hPa
Sichtweite 10 km oder mehr
keine Wolken unter 1500 m und keine Kumulonimbus oder Gewitterwolken

METAR: HESG 231300Z 11017KT CAVOK 40/M04 Q1008 NOSIG

Zeit: 16:20 (14:20 UTC)

Prognose

Neuester Wetterbericht von vor 3 Stunden und 20 Minuten, um 11:00 UTC
Gültige Prognose vom 23 um 12 UTC bis 24 um 18 UTC
Wind 12 kt aus Nord
Sichtweite 10 km oder mehr
keine Wolken unter 1500 m und keine Kumulonimbus oder Gewitterwolken

TAF: HESG 231100Z 2312/2418 35012KT CAVOK

Wetterbeobachtungen und Prognosen von mehr als 4000 Flughäfen (METAR und TAF Bericht).

Die verfügbaren Stationen werden durch gelbe und rote Markierungen auf der Karte dargestellt.

Führen Sie die Maus auf sie, um den Namen der Station zu sehen.

Darauf klicken, um die Beobachtung von Wetterbeobachtungen und Prognosen zu sehen.

Um die Karte zu ändern : klicken Sie auf den grünen Tasten mit einem schwarzen Kreuz Zum Vergrößern, auf den grünen Button mit einem Gedankenstrich zu verkleinern, oder auf die grünen Pfeile für benachbarte Karten.


METAR-TAF: